This is the latest recevied weather packets stored in our database for station/object S57ZT-10. If no packets are shown the sender has not sent any weather packets the latest 10 day(s).
| Time | Temp. | Humidity | Pressure | Rain* | Wind** | Luminosity | Snow |
|---|---|---|---|---|---|---|---|
| 1777707156 | 21.11° C | 34% | 1027.1 hPa | - | - | - | - |
| 1777696327 | 12.22° C | 51% | 1027.6 hPa | - | - | - | - |
| 1777695438 | 12.22° C | 51% | 1027.6 hPa | - | - | - | - |
| 1777694529 | 11.67° C | 51% | 1027.5 hPa | - | - | - | - |
| 1777693629 | 11.67° C | 51% | 1027.5 hPa | - | - | - | - |
| 1777693380 | 11.67° C | 51% | 1027.4 hPa | - | - | - | - |
| 1777693309 | 11.67° C | 51% | 1027.4 hPa | - | - | - | - |
| 1777692522 | 11.67° C | 50% | 1027.4 hPa | - | - | - | - |
| 1777692137 | 11.67° C | 50% | 1027.4 hPa | - | - | - | - |
| 1777691497 | 11.67° C | 50% | 1027.4 hPa | - | - | - | - |
| 1777688221 | 11.67° C | 49% | 1027.6 hPa | - | - | - | - |
| 1777682826 | 12.78° C | 46% | 1027.7 hPa | - | - | - | - |
| 1777675614 | 13.89° C | 42% | 1028.4 hPa | - | - | - | - |
| 1777674190 | 15° C | 41% | 1028.4 hPa | - | - | - | - |
| 1777673835 | 15° C | 41% | 1028.4 hPa | - | - | - | - |
| 1777671121 | 15.56° C | 38% | 1028.4 hPa | - | - | - | - |
| 1777669326 | 15.56° C | 37% | 1028.4 hPa | - | - | - | - |
| 1777667529 | 16.11° C | 36% | 1028.4 hPa | - | - | - | - |
| 1777662164 | 17.78° C | 33% | 1028 hPa | - | - | - | - |
| 1777662121 | 17.78° C | 33% | 1028 hPa | - | - | - | - |
| 1777654024 | 21.11° C | 27% | 1026.7 hPa | - | - | - | - |
| 1777652225 | 22.22° C | 26% | 1026.7 hPa | - | - | - | - |
| 1777651339 | 22.22° C | 26% | 1026.7 hPa | - | - | - | - |
| 1777650428 | 22.78° C | 25% | 1026.7 hPa | - | - | - | - |
| 1777649528 | 23.33° C | 24% | 1026.8 hPa | - | - | - | - |
* Rain since midnight (hover to see other rain measurements)
** Current wind speed in m/s (hover to see current wind gust speed)